Lowland, North Carolina
Current Conditions -  °F | °C
As of 2:54 PM on Sunday 25 Jan 2015 (Local Time) from KEWN Reporting Station
Clear Clear  
Wind Chill: 56°   Ceiling: Unl
Heat Index: 56°   Visibility: 10mi
Dew Point: 32°   Wind: 0mph
Humidity: 40%   Direction: NA
Pressure: 29.9"   Gusts: NA
Location:  35.3°N, 76.56°W
Report Text: KEWN 251954Z AUTO 00000KT 10SM CLR 13/00 A2990 RMK AO2 SLP125 T01330000
Loading
Personal Weather Stations






























Interactive Weather Map New forecast layout! Learn more

10-Day Weather Forecast

Advertisements
Track Severe Weather on mobile